Saint Paul, MN (55101)

2:25 AM CDT on September 05, 2015 (GMT -0500)
Mounds Park, East Metro | | Change Station
CLOSE
Current Station
Personal Weather Station
Location: Saint Paul, MN
Elevation: 850 ft
Nearby Weather Stations

Elev 850 ft 44.95 °N, 93.06 °W | Updated 10 minutes ago

Scattered Clouds
Scattered Clouds
74.8 °F
Feels Like 76 °F
N
1.0
Wind Variable Wind from NE
Gusts 7.0 mph

Today
High -- | Low -- °F
--% Chance of Precip.
Yesterday
High -- | Low -- °F
Precip. -- in
6:38 AM 7:42 PM
Waning Gibbous, 51% visible
Pressure 29.92 in
Visibility 10.0 miles
Clouds Scattered Clouds 12000 ft
Heat Index 76 °F
Dew Point 67 °F
Humidity 76%
Rainfall Not available.
Snow Depth Not available.
UV 0 out of 12
Pollen 9.10 out of 12
Air Quality Not available.
Flu Activity Not available.
METAR KSTP 050653Z AUTO 15007KT 10SM SCT120 24/22 A2994 RMK AO2 SLP132 T02440217
Pressure 29.92 in
Visibility 10.0 miles
Clouds Scattered Clouds 12000 ft
Heat Index 76 °F
Dew Point 67 °F
Humidity 76%
Rainfall Not available.
Snow Depth Not available.
UV 0 out of 12
Pollen 9.10 out of 12
Air Quality Not available.
Flu Activity Not available.
METAR KSTP 050653Z AUTO 15007KT 10SM SCT120 24/22 A2994 RMK AO2 SLP132 T02440217

10-Day Weather Forecast

×

Almanac

Astronomy

Sep. 05, 2015 Rise Set
Actual Time
Civil Twilight
Nautical Twilight
Astronomical Twilight
Moon
Length of Visible Light
Length of Day
Tomorrow will be .
, % of the Moon is Illuminated

Today's Extremes

State Highs State Lows

Community

WunderPhotos

Upload Photos

1,852,430 photos uploaded!

WunderBlogs® & News

Nearby

Air Quality

  Air Quality AQ Index Pollutant
Not available.

Snow Depth

Station Depth Elevation

Earthquake Activity

City Distance Mag. Time & Date
Minimum magnitude displayed is 2.5.

Coastal Water Temperatures

Place Temperature

Stations

Nearby Weather Stations

Station Location Temp. Windchill Dew Point Humidity Wind Precip. Elev Updated Type